createdAt,value
2018-02-02T00:00:22.667Z,9.60
2018-02-02T00:02:52.258Z,12.87
2018-02-02T00:05:21.500Z,8.87
2018-02-02T00:07:50.906Z,22.53
2018-02-02T00:10:19.127Z,11.30
2018-02-02T00:12:47.370Z,11.80
2018-02-02T00:15:16.079Z,10.30
2018-02-02T00:17:45.470Z,17.00
2018-02-02T00:20:15.074Z,9.73
2018-02-02T00:22:44.020Z,10.60
2018-02-02T00:25:12.270Z,9.33
2018-02-02T00:27:41.881Z,10.47
2018-02-02T00:30:10.803Z,11.63
2018-02-02T00:32:40.212Z,13.53
2018-02-02T00:35:09.218Z,13.30
2018-02-02T00:37:37.472Z,11.53
2018-02-02T00:40:06.474Z,10.07
2018-02-02T00:42:35.863Z,15.70
2018-02-02T00:45:05.494Z,10.43
2018-02-02T00:47:34.753Z,10.73
2018-02-02T00:50:03.731Z,9.80
2018-02-02T00:52:33.156Z,12.77
2018-02-02T00:55:02.158Z,11.00
2018-02-02T00:57:31.168Z,15.47
2018-02-02T01:00:00.230Z,11.43
2018-02-02T01:02:28.486Z,18.50
2018-02-02T01:04:59.524Z,17.17
2018-02-02T01:07:28.187Z,17.83
2018-02-02T01:09:56.434Z,15.97
2018-02-02T01:12:24.670Z,15.97
2018-02-02T01:14:52.942Z,12.73
2018-02-02T01:19:57.251Z,16.83
2018-02-02T01:22:26.247Z,21.93
2018-02-02T01:24:55.841Z,10.93
2018-02-02T01:27:25.124Z,12.53
2018-02-02T01:29:53.360Z,17.30
2018-02-02T01:32:23.040Z,17.93
2018-02-02T01:34:52.664Z,13.13
2018-02-02T01:37:22.125Z,14.23
2018-02-02T01:39:51.364Z,11.80
2018-02-02T01:42:19.638Z,10.77
2018-02-02T01:44:48.632Z,14.73
2018-02-02T01:47:17.996Z,16.27
2018-02-02T01:49:46.263Z,15.20
2018-02-02T01:52:15.880Z,13.37
2018-02-02T01:54:44.407Z,13.20
2018-02-02T01:57:13.819Z,12.03
2018-02-02T01:59:42.070Z,15.50
2018-02-02T02:02:11.083Z,18.57
2018-02-02T02:04:39.385Z,14.57
2018-02-02T02:07:08.376Z,15.23
2018-02-02T02:09:37.959Z,17.40
2018-02-02T02:12:06.500Z,16.07
2018-02-02T02:14:34.732Z,15.47
2018-02-02T02:17:04.315Z,17.40
2018-02-02T02:19:33.215Z,15.07
2018-02-02T02:22:01.454Z,19.70
2018-02-02T02:24:29.702Z,14.57
2018-02-02T02:26:57.967Z,17.47
2018-02-02T02:29:27.565Z,21.10
2018-02-02T02:31:57.019Z,15.30
2018-02-02T02:34:26.303Z,14.90
2018-02-02T02:36:54.523Z,16.10
2018-02-02T02:39:22.756Z,14.30
2018-02-02T02:41:52.184Z,19.20
2018-02-02T02:44:21.199Z,16.77
2018-02-02T02:46:50.801Z,15.53
2018-02-02T02:49:20.452Z,17.13
2018-02-02T02:51:48.689Z,16.83
2018-02-02T02:54:18.487Z,20.57
2018-02-02T02:56:46.692Z,15.80
2018-02-02T02:59:14.932Z,18.40
2018-02-02T03:01:43.587Z,19.40
2018-02-02T03:04:11.900Z,16.80
2018-02-02T03:06:40.145Z,21.27
2018-02-02T03:09:09.775Z,20.43
2018-02-02T03:11:37.912Z,20.37
2018-02-02T03:14:06.139Z,27.03
2018-02-02T03:16:34.367Z,21.07
2018-02-02T03:19:02.648Z,22.07
2018-02-02T03:21:31.644Z,22.40
2018-02-02T03:23:59.903Z,20.57
2018-02-02T03:26:28.164Z,23.63
2018-02-02T03:28:56.397Z,20.53
2018-02-02T03:31:26.133Z,26.30
2018-02-02T03:33:55.161Z,23.47
2018-02-02T03:36:24.751Z,24.60
2018-02-02T03:38:52.874Z,22.67
2018-02-02T03:41:22.644Z,24.03
2018-02-02T03:43:50.876Z,22.77
2018-02-02T03:46:19.111Z,25.87
2018-02-02T03:48:47.820Z,24.53
2018-02-02T03:51:16.066Z,24.93
2018-02-02T03:53:44.297Z,24.87
2018-02-02T03:56:14.476Z,23.80
2018-02-02T03:58:43.936Z,25.60
2018-02-02T04:01:12.460Z,22.83
2018-02-02T04:03:40.739Z,28.60
2018-02-02T04:06:09.744Z,22.07
2018-02-02T04:08:39.111Z,21.33
2018-02-02T04:11:08.150Z,26.07
2018-02-02T04:13:36.376Z,18.43
2018-02-02T04:16:06.108Z,19.17
2018-02-02T04:18:34.367Z,21.30
2018-02-02T04:21:02.600Z,20.57
2018-02-02T04:23:30.843Z,18.70
2018-02-02T04:25:59.139Z,19.30
2018-02-02T04:28:27.367Z,19.20
2018-02-02T04:30:55.616Z,18.03
2018-02-02T04:33:23.911Z,21.73
2018-02-02T04:35:53.939Z,27.10
2018-02-02T04:38:22.171Z,21.77
2018-02-02T04:40:51.783Z,22.10
2018-02-02T04:43:20.288Z,17.50
2018-02-02T04:45:48.534Z,19.67
2018-02-02T04:48:16.792Z,18.27
2018-02-02T04:50:45.811Z,21.93
2018-02-02T04:53:14.052Z,18.67
2018-02-02T04:55:42.327Z,18.60
2018-02-02T04:58:12.088Z,22.87
2018-02-02T05:00:40.334Z,21.60
2018-02-02T05:03:08.612Z,21.40
2018-02-02T05:05:36.835Z,22.43
2018-02-02T05:08:06.424Z,21.60
2018-02-02T05:10:34.964Z,24.53
2018-02-02T05:13:03.200Z,28.23
2018-02-02T05:15:31.450Z,18.13
2018-02-02T05:17:59.726Z,20.57
2018-02-02T05:20:27.960Z,17.63
2018-02-02T05:22:56.179Z,23.63
2018-02-02T05:25:24.467Z,21.90
2018-02-02T05:27:53.459Z,19.83
2018-02-02T05:30:21.696Z,18.50
2018-02-02T05:32:49.964Z,15.90
2018-02-02T05:35:18.196Z,17.13
2018-02-02T05:37:46.442Z,25.60
2018-02-02T05:40:16.240Z,27.20
2018-02-02T05:42:44.475Z,19.80
2018-02-02T05:45:12.747Z,21.20
2018-02-02T05:47:41.030Z,17.77
2018-02-02T05:50:09.285Z,18.20
2018-02-02T05:52:37.559Z,19.17
2018-02-02T05:55:06.974Z,18.33
2018-02-02T05:57:35.205Z,18.20
2018-02-02T06:00:03.449Z,23.27
2018-02-02T06:02:31.725Z,16.03
2018-02-02T06:04:59.964Z,27.27
2018-02-02T06:07:28.207Z,22.50
2018-02-02T06:09:57.235Z,17.50
2018-02-02T06:12:26.833Z,21.53
2018-02-02T06:14:55.714Z,17.47
2018-02-02T06:17:23.994Z,16.10
2018-02-02T06:19:52.228Z,19.13
2018-02-02T06:22:20.474Z,25.33
2018-02-02T06:24:50.244Z,20.53
2018-02-02T06:27:18.480Z,24.20
2018-02-02T06:29:46.708Z,19.60
2018-02-02T06:32:16.327Z,16.97
2018-02-02T06:34:44.444Z,19.23
2018-02-02T06:37:13.106Z,16.10
2018-02-02T06:39:41.375Z,21.23
2018-02-02T06:42:09.646Z,16.57
2018-02-02T06:44:39.358Z,18.47
2018-02-02T06:47:08.521Z,20.27
2018-02-02T06:49:37.158Z,22.23
2018-02-02T06:52:05.405Z,18.73
2018-02-02T06:54:33.668Z,21.20
2018-02-02T06:57:01.900Z,22.80
2018-02-02T06:59:30.140Z,15.60
2018-02-02T07:01:58.434Z,18.93
2018-02-02T07:04:28.182Z,21.30
2018-02-02T07:06:56.404Z,22.67
2018-02-02T07:09:24.680Z,16.50
2018-02-02T07:11:52.922Z,22.50
2018-02-02T07:14:21.155Z,14.83
2018-02-02T07:16:50.555Z,17.17
2018-02-02T07:19:19.189Z,23.50
2018-02-02T07:21:47.430Z,15.33
2018-02-02T07:24:15.715Z,17.87
2018-02-02T07:26:44.732Z,21.50
2018-02-02T07:29:13.741Z,17.73
2018-02-02T07:31:42.797Z,15.10
2018-02-02T07:34:11.063Z,19.43
2018-02-02T07:36:40.660Z,15.80
2018-02-02T07:39:09.200Z,18.50
2018-02-02T07:41:37.433Z,14.40
2018-02-02T07:44:05.659Z,13.87
2018-02-02T07:46:33.942Z,15.00
2018-02-02T07:49:02.178Z,15.60
2018-02-02T07:51:30.422Z,14.20
2018-02-02T07:53:58.692Z,12.70
2018-02-02T07:56:27.310Z,16.97
2018-02-02T07:58:56.678Z,11.57
2018-02-02T08:01:24.941Z,11.67
2018-02-02T08:03:53.165Z,9.70
2018-02-02T08:06:22.747Z,8.60
2018-02-02T08:08:51.635Z,11.70
2018-02-02T08:11:20.638Z,12.83
2018-02-02T08:13:50.219Z,10.80
2018-02-02T08:16:19.136Z,9.47
2018-02-02T08:18:47.359Z,9.50
2018-02-02T08:21:15.614Z,12.00
2018-02-02T08:23:43.875Z,11.23
2018-02-02T08:26:13.242Z,8.50
2018-02-02T08:28:41.480Z,9.90
2018-02-02T08:31:09.796Z,7.67
2018-02-02T08:33:39.422Z,12.23
2018-02-02T08:36:07.926Z,8.80
2018-02-02T08:38:36.180Z,9.27
2018-02-02T08:41:04.400Z,7.97
2018-02-02T08:43:32.634Z,9.17
2018-02-02T08:46:00.905Z,10.17
2018-02-02T08:48:29.159Z,8.27
2018-02-02T08:50:58.754Z,10.37
2018-02-02T08:53:28.240Z,11.13
2018-02-02T08:55:56.735Z,9.13
2018-02-02T08:58:24.951Z,10.33
2018-02-02T09:00:58.927Z,9.73
2018-02-02T09:03:27.151Z,9.50
2018-02-02T09:05:56.745Z,11.60
2018-02-02T09:08:26.040Z,14.00
2018-02-02T09:10:54.266Z,8.10
2018-02-02T09:13:23.634Z,8.67
2018-02-02T09:15:53.253Z,8.30
2018-02-02T09:18:21.743Z,9.77
2018-02-02T09:20:49.977Z,7.40
2018-02-02T09:23:18.641Z,8.50
2018-02-02T09:25:46.868Z,8.90
2018-02-02T09:28:15.108Z,23.93
2018-02-02T09:30:43.383Z,17.27
2018-02-02T09:33:12.400Z,12.37
2018-02-02T09:35:41.408Z,10.73
2018-02-02T09:38:10.388Z,9.70
2018-02-02T09:40:38.616Z,12.70
2018-02-02T09:43:06.839Z,9.20
2018-02-02T09:45:35.880Z,9.77
2018-02-02T09:48:05.455Z,14.93
2018-02-02T09:50:33.564Z,10.97
2018-02-02T09:53:01.844Z,38.50
2018-02-02T09:55:30.092Z,11.67
2018-02-02T09:57:59.476Z,15.90
2018-02-02T10:00:27.744Z,17.17
2018-02-02T10:02:55.975Z,13.80
2018-02-02T10:05:24.208Z,13.33
2018-02-02T10:07:52.472Z,13.60
2018-02-02T10:10:20.704Z,19.63
2018-02-02T10:12:48.936Z,13.00
2018-02-02T10:15:20.078Z,13.70
2018-02-02T10:17:48.304Z,17.17
2018-02-02T10:20:17.903Z,10.97
2018-02-02T10:22:46.831Z,10.43
2018-02-02T10:25:15.082Z,8.37
2018-02-02T10:27:43.330Z,6.93
2018-02-02T10:30:12.012Z,6.00
2018-02-02T10:32:41.034Z,3.67
2018-02-02T10:35:09.269Z,3.23
2018-02-02T10:37:37.575Z,2.73
2018-02-02T10:40:05.800Z,2.30
2018-02-02T10:42:34.021Z,2.47
2018-02-02T10:45:02.776Z,4.00
2018-02-02T10:47:32.127Z,3.40
2018-02-02T10:50:01.128Z,1.70
2018-02-02T10:52:30.915Z,6.57
2018-02-02T10:54:59.160Z,4.83
2018-02-02T10:57:28.763Z,1.50
2018-02-02T10:59:57.284Z,5.50
2018-02-02T11:02:31.216Z,3.77
2018-02-02T11:05:00.624Z,5.23
2018-02-02T11:07:28.852Z,5.17
2018-02-02T11:09:57.067Z,4.60
2018-02-02T11:12:25.354Z,7.43
2018-02-02T11:14:55.080Z,5.73
2018-02-02T11:17:24.657Z,7.47
2018-02-02T11:19:53.181Z,7.80
2018-02-02T11:22:21.400Z,8.33
2018-02-02T11:24:49.628Z,7.13
2018-02-02T11:27:18.684Z,7.60
2018-02-02T11:29:48.418Z,9.30
2018-02-02T11:32:16.643Z,10.77
2018-02-02T11:34:44.916Z,10.40
2018-02-02T11:37:13.160Z,9.50
2018-02-02T11:39:42.803Z,10.20
2018-02-02T11:42:12.088Z,9.30
2018-02-02T11:44:40.329Z,9.30
2018-02-02T11:47:08.566Z,9.83
2018-02-02T11:49:36.836Z,11.73
2018-02-02T11:52:06.407Z,9.97
2018-02-02T11:54:34.508Z,10.77
2018-02-02T11:57:02.782Z,9.90
2018-02-02T11:59:32.146Z,9.40
2018-02-02T12:02:01.154Z,13.63
2018-02-02T12:04:29.428Z,8.97
2018-02-02T12:06:58.435Z,6.90
2018-02-02T12:09:27.792Z,4.10
2018-02-02T12:11:56.059Z,6.77
2018-02-02T12:14:24.280Z,5.87
2018-02-02T12:16:53.856Z,3.23
2018-02-02T12:19:21.998Z,5.63
2018-02-02T12:21:51.425Z,6.53
2018-02-02T12:24:24.040Z,3.13
2018-02-02T12:26:59.308Z,3.23
2018-02-02T12:29:28.960Z,5.37
2018-02-02T12:31:58.081Z,3.93
2018-02-02T12:34:33.408Z,12.60
2018-02-02T12:37:02.778Z,6.83
2018-02-02T12:39:31.012Z,5.03
2018-02-02T12:41:59.308Z,5.87
2018-02-02T12:44:27.546Z,3.70
2018-02-02T12:46:55.768Z,8.80
2018-02-02T12:49:30.942Z,6.93
2018-02-02T12:51:59.177Z,7.00
2018-02-02T12:54:28.165Z,7.57
2018-02-02T12:56:56.441Z,10.60
2018-02-02T12:59:25.791Z,8.60
2018-02-02T13:01:54.030Z,8.00
2018-02-02T13:04:23.082Z,9.63
2018-02-02T13:06:52.070Z,7.60
2018-02-02T13:09:20.296Z,10.30
2018-02-02T13:11:48.556Z,7.40
2018-02-02T13:14:16.779Z,10.17
2018-02-02T13:16:45.035Z,10.40
2018-02-02T13:19:13.322Z,13.00
2018-02-02T13:21:42.758Z,6.63
2018-02-02T13:24:10.975Z,6.70
2018-02-02T13:26:39.237Z,14.97
2018-02-02T13:29:07.466Z,6.87
2018-02-02T13:31:36.088Z,18.33
2018-02-02T13:34:04.343Z,8.47
2018-02-02T13:36:34.086Z,5.80
2018-02-02T13:39:03.655Z,9.63
2018-02-02T13:41:32.954Z,8.07
2018-02-02T13:44:01.574Z,6.90
2018-02-02T13:46:29.809Z,7.43
2018-02-02T13:48:58.098Z,13.87
2018-02-02T13:51:26.324Z,10.53
2018-02-02T13:53:54.610Z,9.10
2018-02-02T13:56:24.324Z,5.63
2018-02-02T13:58:52.567Z,6.63
2018-02-02T14:01:20.798Z,13.40
2018-02-02T14:03:50.408Z,6.80
2018-02-02T14:06:18.903Z,9.30
2018-02-02T14:08:47.120Z,5.23
2018-02-02T14:11:15.499Z,5.50
2018-02-02T14:13:45.054Z,4.37
2018-02-02T14:16:13.941Z,7.63
2018-02-02T14:18:42.209Z,9.73
2018-02-02T14:21:10.448Z,9.30
2018-02-02T14:23:39.477Z,7.70
2018-02-02T14:26:07.755Z,17.13
2018-02-02T14:28:36.744Z,9.67
2018-02-02T14:31:05.746Z,8.70
2018-02-02T14:33:35.348Z,4.70
2018-02-02T14:36:04.220Z,12.70
2018-02-02T14:38:32.457Z,8.50
2018-02-02T14:41:00.740Z,7.00
2018-02-02T14:43:28.975Z,18.70
2018-02-02T14:45:57.220Z,7.53
2018-02-02T14:48:25.476Z,8.93
2018-02-02T14:50:53.700Z,8.20
2018-02-02T14:53:23.280Z,7.70
2018-02-02T14:55:51.422Z,6.53
2018-02-02T14:58:19.639Z,9.00
2018-02-02T15:00:50.092Z,10.53
2018-02-02T15:03:19.500Z,8.67
2018-02-02T15:05:48.492Z,7.73
2018-02-02T15:08:17.479Z,9.90
2018-02-02T15:10:45.740Z,7.60
2018-02-02T15:13:13.975Z,12.07
2018-02-02T15:15:42.220Z,8.47
2018-02-02T15:18:10.502Z,8.30
2018-02-02T15:20:38.724Z,9.60
2018-02-02T15:23:16.894Z,13.93
2018-02-02T15:25:46.247Z,6.03
2018-02-02T15:28:14.509Z,6.90
2018-02-02T15:30:42.767Z,13.03
2018-02-02T15:33:11.005Z,8.47
2018-02-02T15:35:39.232Z,10.50
2018-02-02T15:38:07.913Z,10.77
2018-02-02T15:40:37.652Z,13.77
2018-02-02T15:43:05.871Z,8.00
2018-02-02T15:45:35.267Z,10.70
2018-02-02T15:48:03.644Z,11.93
2018-02-02T15:50:32.628Z,9.87
2018-02-02T15:53:01.651Z,12.00
2018-02-02T15:55:29.905Z,9.80
2018-02-02T15:57:59.488Z,9.77
2018-02-02T16:00:28.396Z,9.83
2018-02-02T16:03:02.065Z,10.40
2018-02-02T16:05:31.691Z,11.07
2018-02-02T16:08:00.226Z,10.80
2018-02-02T16:10:28.887Z,7.57
2018-02-02T16:12:57.158Z,10.67
2018-02-02T16:15:25.388Z,9.33
2018-02-02T16:17:55.115Z,14.07
2018-02-02T16:20:23.787Z,10.17
2018-02-02T16:22:53.538Z,10.00
2018-02-02T16:25:21.755Z,10.70
2018-02-02T16:27:52.780Z,13.17
2018-02-02T16:30:21.408Z,10.83
2018-02-02T16:32:51.140Z,9.93
2018-02-02T16:35:19.396Z,38.57
2018-02-02T16:37:47.628Z,13.43
2018-02-02T16:40:15.890Z,9.90
2018-02-02T16:42:45.677Z,7.47
2018-02-02T16:45:13.932Z,8.10
2018-02-02T16:47:42.946Z,10.00
2018-02-02T16:50:11.240Z,8.70
2018-02-02T16:52:40.853Z,19.07
2018-02-02T16:55:08.952Z,8.90
2018-02-02T16:57:38.559Z,10.40
2018-02-02T17:00:07.064Z,14.87
2018-02-02T17:02:36.644Z,13.60
2018-02-02T17:05:05.552Z,17.27
2018-02-02T17:07:33.788Z,15.67
2018-02-02T17:10:03.375Z,13.70
2018-02-02T17:12:32.310Z,10.93
2018-02-02T17:15:01.922Z,13.63
2018-02-02T17:20:26.548Z,11.17
2018-02-02T17:22:55.567Z,16.10
2018-02-02T17:25:23.791Z,16.67
2018-02-02T17:27:52.069Z,10.93
2018-02-02T17:30:21.060Z,14.00
2018-02-02T17:32:50.808Z,13.93
2018-02-02T17:35:20.579Z,12.20
2018-02-02T17:37:50.163Z,16.00
2018-02-02T17:40:18.667Z,11.70
2018-02-02T17:42:47.342Z,16.97
2018-02-02T17:45:16.927Z,24.00
2018-02-02T17:47:46.417Z,17.43
2018-02-02T17:50:15.740Z,20.10
2018-02-02T17:52:43.983Z,18.03
2018-02-02T17:55:12.988Z,16.30
2018-02-02T17:57:41.271Z,14.70
2018-02-02T18:00:11.984Z,12.53
2018-02-02T18:02:43.853Z,14.83
2018-02-02T18:05:12.094Z,16.13
2018-02-02T18:07:40.346Z,14.00
2018-02-02T18:10:08.639Z,15.77
2018-02-02T18:12:37.646Z,10.40
2018-02-02T18:15:07.224Z,14.60
2018-02-02T18:17:36.735Z,13.50
2018-02-02T18:20:04.848Z,12.27
2018-02-02T18:22:33.085Z,13.10
2018-02-02T18:25:01.360Z,12.17
2018-02-02T18:27:30.958Z,17.83
2018-02-02T18:29:59.503Z,13.00
2018-02-02T18:32:28.732Z,9.90
2018-02-02T18:34:56.960Z,26.30
2018-02-02T18:37:25.192Z,14.60
2018-02-02T18:39:53.456Z,15.70
2018-02-02T18:42:23.196Z,12.93
2018-02-02T18:44:52.804Z,10.97
2018-02-02T18:47:22.076Z,17.70
2018-02-02T18:49:51.669Z,12.63
2018-02-02T18:52:19.891Z,11.30
2018-02-02T18:54:48.171Z,13.50
2018-02-02T18:57:16.387Z,15.30
2018-02-02T18:59:46.319Z,9.13
2018-02-02T19:02:14.523Z,9.30
2018-02-02T19:04:42.778Z,11.27
2018-02-02T19:07:13.742Z,11.50
2018-02-02T19:09:42.474Z,10.50
2018-02-02T19:12:11.606Z,11.97
2018-02-02T19:14:41.299Z,9.13
2018-02-02T19:17:10.848Z,8.47
2018-02-02T19:19:38.987Z,11.63
2018-02-02T19:22:07.642Z,11.23
2018-02-02T19:24:36.991Z,11.90
2018-02-02T19:27:05.276Z,12.93
2018-02-02T19:29:33.601Z,12.30
2018-02-02T19:32:02.299Z,8.83
2018-02-02T19:34:31.375Z,8.60
2018-02-02T19:37:00.401Z,11.43
2018-02-02T19:39:29.365Z,9.33
2018-02-02T19:41:58.424Z,9.60
2018-02-02T19:44:26.732Z,8.50
2018-02-02T19:46:54.952Z,17.20
2018-02-02T19:49:24.534Z,12.23
2018-02-02T19:51:54.108Z,11.17
2018-02-02T19:54:22.395Z,9.77
2018-02-02T19:56:50.768Z,10.30
2018-02-02T19:59:19.856Z,8.87
2018-02-02T20:01:48.971Z,10.63
2018-02-02T20:04:17.182Z,10.03
2018-02-02T20:06:45.702Z,10.13
2018-02-02T20:09:15.116Z,7.23
2018-02-02T20:11:43.344Z,8.47
2018-02-02T20:14:13.119Z,4.80
2018-02-02T20:16:41.424Z,5.97
2018-02-02T20:19:10.413Z,4.37
2018-02-02T20:21:38.736Z,7.67
2018-02-02T20:24:12.986Z,4.90
2018-02-02T20:26:42.759Z,4.67
2018-02-02T20:29:12.392Z,5.37
2018-02-02T20:31:41.079Z,5.97
2018-02-02T20:34:10.703Z,6.43
2018-02-02T20:36:39.192Z,5.50
2018-02-02T20:39:08.611Z,6.30
2018-02-02T20:41:36.855Z,5.73
2018-02-02T20:44:06.645Z,4.27
2018-02-02T20:46:34.970Z,4.53
2018-02-02T20:49:04.582Z,8.23
2018-02-02T20:51:33.174Z,5.83
2018-02-02T20:54:01.461Z,5.87
2018-02-02T20:56:29.788Z,8.73
2018-02-02T20:58:58.078Z,4.90
2018-02-02T21:01:27.539Z,4.87
2018-02-02T21:03:57.340Z,7.77
2018-02-02T21:06:26.602Z,6.50
2018-02-02T21:08:54.959Z,6.13
2018-02-02T21:11:24.832Z,8.13
2018-02-02T21:13:54.604Z,9.47
2018-02-02T21:16:24.231Z,5.57
2018-02-02T21:18:53.126Z,8.77
2018-02-02T21:21:21.407Z,7.60
2018-02-02T21:23:50.506Z,7.90
2018-02-02T21:26:19.137Z,7.10
2018-02-02T21:28:48.680Z,6.80
2018-02-02T21:31:18.291Z,8.97
2018-02-02T21:33:46.792Z,15.73
2018-02-02T21:36:15.797Z,7.07
2018-02-02T21:38:45.329Z,6.40
2018-02-02T21:41:13.564Z,9.20
2018-02-02T21:43:42.616Z,7.07
2018-02-02T21:46:11.723Z,9.80
2018-02-02T21:48:41.292Z,6.77
2018-02-02T21:51:10.587Z,6.23
2018-02-02T21:53:38.841Z,6.53
2018-02-02T21:56:07.879Z,6.23
2018-02-02T21:58:37.451Z,6.73
2018-02-02T22:01:05.984Z,9.50
2018-02-02T22:03:35.568Z,8.00
2018-02-02T22:06:04.064Z,6.60
2018-02-02T22:08:33.671Z,8.33
2018-02-02T22:11:02.602Z,7.00
2018-02-02T22:13:31.604Z,5.60
2018-02-02T22:16:00.693Z,8.10
2018-02-02T22:18:28.904Z,6.00
2018-02-02T22:20:57.128Z,6.67
2018-02-02T22:23:25.384Z,6.20
2018-02-02T22:25:53.655Z,5.73
2018-02-02T22:28:21.919Z,6.30
2018-02-02T22:30:51.519Z,6.50
2018-02-02T22:33:20.011Z,6.67
2018-02-02T22:35:48.236Z,16.30
2018-02-02T22:38:16.513Z,10.27
2018-02-02T22:40:45.879Z,8.27
2018-02-02T22:43:14.125Z,11.07
2018-02-02T22:45:43.973Z,8.53
2018-02-02T22:48:12.193Z,7.87
2018-02-02T22:50:40.481Z,11.13
2018-02-02T22:53:10.666Z,7.03
2018-02-02T22:55:38.766Z,6.57
2018-02-02T22:58:06.999Z,10.23
2018-02-02T23:00:35.306Z,7.70
2018-02-02T23:03:03.523Z,7.60
2018-02-02T23:05:31.766Z,6.93
2018-02-02T23:08:00.040Z,9.50
2018-02-02T23:10:29.776Z,5.77
2018-02-02T23:12:59.190Z,8.20
2018-02-02T23:15:28.254Z,7.50
2018-02-02T23:17:56.529Z,7.17
2018-02-02T23:20:25.459Z,7.00
2018-02-02T23:22:55.072Z,6.97
2018-02-02T23:25:23.944Z,11.63
2018-02-02T23:27:52.176Z,11.57
2018-02-02T23:30:21.931Z,9.93
2018-02-02T23:32:50.166Z,8.40
2018-02-02T23:35:18.384Z,6.10
2018-02-02T23:37:48.016Z,7.17
2018-02-02T23:40:16.524Z,7.33
2018-02-02T23:42:44.823Z,8.50
2018-02-02T23:45:13.080Z,8.47
2018-02-02T23:47:41.318Z,8.20
2018-02-02T23:50:09.544Z,10.20
2018-02-02T23:52:37.820Z,9.00
2018-02-02T23:55:07.414Z,6.60
2018-02-02T23:57:35.916Z,8.37
